Current Weather

Illinois Valley Rgnl-Walter a Duncan Fld

Peru, Illinois (KVYS)

Report from: Tuesday, February 27, 2024 4:15 AM CST
Current time: Tuesday, February 27, 2024 4:50 AM CST

Nearby weather – Weather history – Daily summaries
Weather forecast

Temperature11.8°C (53.2°F)
Dew point10.5°C (50.9°F)
Winds 7 kts (3.6 m/s, 8.1 mph) South-Southwest (200°)
Visibility7 mi. (11.3 km)
Clouds Sky clear
Altimeter29.40 in.Hg (996 mB)
Relative humidity92 %
Density altitude401 ft. (122 m)
Remarks Fully automated report
Automated weather observing station with precipitation discriminator
Lightning detection system not operating
Flight conditions Visual Meteorological Conditions
Raw dataKVYS 271015Z AUTO 20007KT 7SM CLR 12/11 A2940 RMK AO2 T01180105 TSNO
An error has occurred. This application may no longer respond until reloaded. Reload 🗙